sensor_id;sensor_type;location;lat;lon;timestamp;temperature;humidity
27671;DHT22;15077;49.704;9.908;2023-09-07T00:00:15;21.50;51.70
27671;DHT22;15077;49.704;9.908;2023-09-07T00:02:42;21.40;51.80
27671;DHT22;15077;49.704;9.908;2023-09-07T00:05:13;21.40;51.90
27671;DHT22;15077;49.704;9.908;2023-09-07T00:07:39;21.40;52.10
27671;DHT22;15077;49.704;9.908;2023-09-07T00:10:06;21.30;51.90
27671;DHT22;15077;49.704;9.908;2023-09-07T00:12:33;21.30;52.00
27671;DHT22;15077;49.704;9.908;2023-09-07T00:14:59;21.30;52.00
27671;DHT22;15077;49.704;9.908;2023-09-07T00:17:25;21.30;52.10
27671;DHT22;15077;49.704;9.908;2023-09-07T00:19:51;21.20;52.10
27671;DHT22;15077;49.704;9.908;2023-09-07T00:22:18;21.20;52.10
27671;DHT22;15077;49.704;9.908;2023-09-07T00:24:44;21.20;52.20
27671;DHT22;15077;49.704;9.908;2023-09-07T00:27:10;21.20;52.30
27671;DHT22;15077;49.704;9.908;2023-09-07T00:29:40;21.10;52.30
27671;DHT22;15077;49.704;9.908;2023-09-07T00:32:07;21.10;52.40
27671;DHT22;15077;49.704;9.908;2023-09-07T00:34:34;21.10;52.60
27671;DHT22;15077;49.704;9.908;2023-09-07T00:37:00;21.10;52.40
27671;DHT22;15077;49.704;9.908;2023-09-07T00:39:26;21.10;52.40
27671;DHT22;15077;49.704;9.908;2023-09-07T00:41:52;21.00;52.50
27671;DHT22;15077;49.704;9.908;2023-09-07T00:44:18;21.00;52.50
27671;DHT22;15077;49.704;9.908;2023-09-07T00:46:43;21.00;52.60
27671;DHT22;15077;49.704;9.908;2023-09-07T00:49:13;21.00;52.60
27671;DHT22;15077;49.704;9.908;2023-09-07T00:51:40;21.00;52.80
27671;DHT22;15077;49.704;9.908;2023-09-07T00:54:06;20.90;52.70
27671;DHT22;15077;49.704;9.908;2023-09-07T00:56:33;20.90;53.00
27671;DHT22;15077;49.704;9.908;2023-09-07T00:59:01;20.90;52.90
27671;DHT22;15077;49.704;9.908;2023-09-07T01:01:30;20.80;53.50
27671;DHT22;15077;49.704;9.908;2023-09-07T01:03:59;20.90;53.00
27671;DHT22;15077;49.704;9.908;2023-09-07T01:06:31;20.80;53.00
27671;DHT22;15077;49.704;9.908;2023-09-07T01:09:11;20.80;53.50
27671;DHT22;15077;49.704;9.908;2023-09-07T01:11:43;20.80;53.40
27671;DHT22;15077;49.704;9.908;2023-09-07T01:14:09;20.80;53.10
27671;DHT22;15077;49.704;9.908;2023-09-07T01:16:37;20.70;53.30
27671;DHT22;15077;49.704;9.908;2023-09-07T01:19:08;20.70;53.30
27671;DHT22;15077;49.704;9.908;2023-09-07T01:21:39;20.70;53.40
27671;DHT22;15077;49.704;9.908;2023-09-07T01:24:08;20.70;53.50
27671;DHT22;15077;49.704;9.908;2023-09-07T01:26:36;20.70;53.50
27671;DHT22;15077;49.704;9.908;2023-09-07T01:29:06;20.60;53.50
27671;DHT22;15077;49.704;9.908;2023-09-07T01:31:38;20.60;53.50
27671;DHT22;15077;49.704;9.908;2023-09-07T01:34:06;20.60;53.80
27671;DHT22;15077;49.704;9.908;2023-09-07T01:36:33;20.60;53.60
27671;DHT22;15077;49.704;9.908;2023-09-07T01:39:01;20.60;53.70
27671;DHT22;15077;49.704;9.908;2023-09-07T01:41:29;20.50;53.60
27671;DHT22;15077;49.704;9.908;2023-09-07T01:43:56;20.50;53.80
27671;DHT22;15077;49.704;9.908;2023-09-07T01:46:22;20.50;53.80
27671;DHT22;15077;49.704;9.908;2023-09-07T01:48:49;20.50;53.90
27671;DHT22;15077;49.704;9.908;2023-09-07T01:51:15;20.50;53.90
27671;DHT22;15077;49.704;9.908;2023-09-07T01:53:41;20.50;53.90
27671;DHT22;15077;49.704;9.908;2023-09-07T01:56:07;20.50;53.80
27671;DHT22;15077;49.704;9.908;2023-09-07T01:58:33;20.40;53.90
27671;DHT22;15077;49.704;9.908;2023-09-07T02:00:59;20.40;54.00
27671;DHT22;15077;49.704;9.908;2023-09-07T02:03:26;20.40;54.10
27671;DHT22;15077;49.704;9.908;2023-09-07T02:05:53;20.40;54.00
27671;DHT22;15077;49.704;9.908;2023-09-07T02:08:19;20.30;54.10
27671;DHT22;15077;49.704;9.908;2023-09-07T02:10:45;20.30;54.10
27671;DHT22;15077;49.704;9.908;2023-09-07T02:13:11;20.30;54.10
27671;DHT22;15077;49.704;9.908;2023-09-07T02:15:39;20.30;54.30
27671;DHT22;15077;49.704;9.908;2023-09-07T02:18:05;20.30;54.30
27671;DHT22;15077;49.704;9.908;2023-09-07T02:20:34;20.30;54.60
27671;DHT22;15077;49.704;9.908;2023-09-07T02:23:00;20.20;54.50
27671;DHT22;15077;49.704;9.908;2023-09-07T02:25:27;20.20;54.50
27671;DHT22;15077;49.704;9.908;2023-09-07T02:27:53;20.10;54.50
27671;DHT22;15077;49.704;9.908;2023-09-07T02:30:19;20.10;54.60
27671;DHT22;15077;49.704;9.908;2023-09-07T02:32:45;20.10;54.60
27671;DHT22;15077;49.704;9.908;2023-09-07T02:35:12;20.10;54.80
27671;DHT22;15077;49.704;9.908;2023-09-07T02:37:37;20.00;54.50
27671;DHT22;15077;49.704;9.908;2023-09-07T02:40:05;20.00;54.70
27671;DHT22;15077;49.704;9.908;2023-09-07T02:42:34;20.00;54.70
27671;DHT22;15077;49.704;9.908;2023-09-07T02:45:00;20.00;54.80
27671;DHT22;15077;49.704;9.908;2023-09-07T02:47:27;19.90;54.70
27671;DHT22;15077;49.704;9.908;2023-09-07T02:49:53;19.90;54.80
27671;DHT22;15077;49.704;9.908;2023-09-07T02:52:19;19.90;54.90
27671;DHT22;15077;49.704;9.908;2023-09-07T02:54:47;19.90;54.90
27671;DHT22;15077;49.704;9.908;2023-09-07T02:57:13;19.80;55.00
27671;DHT22;15077;49.704;9.908;2023-09-07T02:59:39;19.80;54.90
27671;DHT22;15077;49.704;9.908;2023-09-07T03:02:07;19.80;55.10
27671;DHT22;15077;49.704;9.908;2023-09-07T03:04:35;19.80;55.50
27671;DHT22;15077;49.704;9.908;2023-09-07T03:07:01;19.80;55.10
27671;DHT22;15077;49.704;9.908;2023-09-07T03:09:27;19.70;55.20
27671;DHT22;15077;49.704;9.908;2023-09-07T03:11:53;19.70;55.20
27671;DHT22;15077;49.704;9.908;2023-09-07T03:14:19;19.70;55.20
27671;DHT22;15077;49.704;9.908;2023-09-07T03:16:45;19.70;55.20
27671;DHT22;15077;49.704;9.908;2023-09-07T03:19:11;19.60;55.30
27671;DHT22;15077;49.704;9.908;2023-09-07T03:21:37;19.60;55.30
27671;DHT22;15077;49.704;9.908;2023-09-07T03:24:03;19.60;55.30
27671;DHT22;15077;49.704;9.908;2023-09-07T03:26:30;19.60;55.30
27671;DHT22;15077;49.704;9.908;2023-09-07T03:28:57;19.50;55.40
27671;DHT22;15077;49.704;9.908;2023-09-07T03:31:24;19.50;55.30
27671;DHT22;15077;49.704;9.908;2023-09-07T03:33:51;19.50;55.40
27671;DHT22;15077;49.704;9.908;2023-09-07T03:36:17;19.40;55.50
27671;DHT22;15077;49.704;9.908;2023-09-07T03:38:43;19.40;55.50
27671;DHT22;15077;49.704;9.908;2023-09-07T03:41:09;19.40;55.60
27671;DHT22;15077;49.704;9.908;2023-09-07T03:43:35;19.40;55.60
27671;DHT22;15077;49.704;9.908;2023-09-07T03:46:01;19.30;55.70
27671;DHT22;15077;49.704;9.908;2023-09-07T03:48:27;19.30;55.70
27671;DHT22;15077;49.704;9.908;2023-09-07T03:50:54;19.30;55.70
27671;DHT22;15077;49.704;9.908;2023-09-07T03:53:21;19.30;55.80
27671;DHT22;15077;49.704;9.908;2023-09-07T03:55:48;19.30;55.90
27671;DHT22;15077;49.704;9.908;2023-09-07T03:58:15;19.30;56.00
27671;DHT22;15077;49.704;9.908;2023-09-07T04:00:41;19.20;55.90
27671;DHT22;15077;49.704;9.908;2023-09-07T04:03:13;19.20;55.90
27671;DHT22;15077;49.704;9.908;2023-09-07T04:05:40;19.20;56.20
27671;DHT22;15077;49.704;9.908;2023-09-07T04:08:06;19.20;56.00
27671;DHT22;15077;49.704;9.908;2023-09-07T04:10:36;19.10;56.30
27671;DHT22;15077;49.704;9.908;2023-09-07T04:13:06;19.10;56.70
27671;DHT22;15077;49.704;9.908;2023-09-07T04:15:45;19.10;56.40
27671;DHT22;15077;49.704;9.908;2023-09-07T04:18:14;19.00;56.40
27671;DHT22;15077;49.704;9.908;2023-09-07T04:20:42;19.00;56.50
27671;DHT22;15077;49.704;9.908;2023-09-07T04:23:09;19.00;56.50
27671;DHT22;15077;49.704;9.908;2023-09-07T04:25:36;19.00;56.60
27671;DHT22;15077;49.704;9.908;2023-09-07T04:28:06;19.00;56.60
27671;DHT22;15077;49.704;9.908;2023-09-07T04:30:41;19.00;56.60
27671;DHT22;15077;49.704;9.908;2023-09-07T04:33:07;18.90;56.80
27671;DHT22;15077;49.704;9.908;2023-09-07T04:35:33;18.90;56.50
27671;DHT22;15077;49.704;9.908;2023-09-07T04:37:59;18.90;56.60
27671;DHT22;15077;49.704;9.908;2023-09-07T04:40:25;18.90;56.60
27671;DHT22;15077;49.704;9.908;2023-09-07T04:42:51;18.90;56.60
27671;DHT22;15077;49.704;9.908;2023-09-07T04:45:17;18.90;56.60
27671;DHT22;15077;49.704;9.908;2023-09-07T04:47:43;18.90;56.70
27671;DHT22;15077;49.704;9.908;2023-09-07T04:50:09;18.90;56.80
27671;DHT22;15077;49.704;9.908;2023-09-07T04:52:35;18.90;57.40
27671;DHT22;15077;49.704;9.908;2023-09-07T04:55:02;18.90;56.80
27671;DHT22;15077;49.704;9.908;2023-09-07T04:57:30;18.90;56.80
27671;DHT22;15077;49.704;9.908;2023-09-07T04:59:56;18.90;56.90
27671;DHT22;15077;49.704;9.908;2023-09-07T05:02:22;18.80;56.80
27671;DHT22;15077;49.704;9.908;2023-09-07T05:04:47;18.80;56.80
27671;DHT22;15077;49.704;9.908;2023-09-07T05:07:13;18.80;56.80
27671;DHT22;15077;49.704;9.908;2023-09-07T05:09:39;18.80;56.80
27671;DHT22;15077;49.704;9.908;2023-09-07T05:12:05;18.80;56.80
27671;DHT22;15077;49.704;9.908;2023-09-07T05:14:31;18.80;56.90
27671;DHT22;15077;49.704;9.908;2023-09-07T05:16:56;18.80;57.00
27671;DHT22;15077;49.704;9.908;2023-09-07T05:19:23;18.80;57.00
27671;DHT22;15077;49.704;9.908;2023-09-07T05:21:48;18.80;57.10
27671;DHT22;15077;49.704;9.908;2023-09-07T05:24:14;18.80;57.10
27671;DHT22;15077;49.704;9.908;2023-09-07T05:26:42;18.80;57.10
27671;DHT22;15077;49.704;9.908;2023-09-07T05:29:08;18.80;57.20
27671;DHT22;15077;49.704;9.908;2023-09-07T05:31:35;18.80;57.10
27671;DHT22;15077;49.704;9.908;2023-09-07T05:34:01;18.80;57.20
27671;DHT22;15077;49.704;9.908;2023-09-07T05:36:27;18.80;57.30
27671;DHT22;15077;49.704;9.908;2023-09-07T05:38:53;18.80;57.30
27671;DHT22;15077;49.704;9.908;2023-09-07T05:41:18;18.80;58.30
27671;DHT22;15077;49.704;9.908;2023-09-07T05:43:45;18.80;58.00
27671;DHT22;15077;49.704;9.908;2023-09-07T05:46:10;18.80;58.20
27671;DHT22;15077;49.704;9.908;2023-09-07T05:48:36;18.80;58.00
27671;DHT22;15077;49.704;9.908;2023-09-07T05:51:02;18.80;58.00
27671;DHT22;15077;49.704;9.908;2023-09-07T05:53:29;18.80;58.20
27671;DHT22;15077;49.704;9.908;2023-09-07T05:55:54;18.80;58.30
27671;DHT22;15077;49.704;9.908;2023-09-07T05:58:20;18.80;58.20
27671;DHT22;15077;49.704;9.908;2023-09-07T06:00:46;18.90;58.60
27671;DHT22;15077;49.704;9.908;2023-09-07T06:03:12;18.90;58.60
27671;DHT22;15077;49.704;9.908;2023-09-07T06:05:38;18.90;58.80
27671;DHT22;15077;49.704;9.908;2023-09-07T06:08:05;18.90;58.90
27671;DHT22;15077;49.704;9.908;2023-09-07T06:10:34;18.90;59.10
27671;DHT22;15077;49.704;9.908;2023-09-07T06:13:00;19.00;59.40
27671;DHT22;15077;49.704;9.908;2023-09-07T06:15:26;19.00;60.00
27671;DHT22;15077;49.704;9.908;2023-09-07T06:17:53;19.00;60.10
27671;DHT22;15077;49.704;9.908;2023-09-07T06:20:20;19.00;60.20
27671;DHT22;15077;49.704;9.908;2023-09-07T06:22:46;19.10;60.30
27671;DHT22;15077;49.704;9.908;2023-09-07T06:25:11;19.10;60.50
27671;DHT22;15077;49.704;9.908;2023-09-07T06:27:37;19.10;60.50
27671;DHT22;15077;49.704;9.908;2023-09-07T06:30:07;19.20;60.80
27671;DHT22;15077;49.704;9.908;2023-09-07T06:32:33;19.20;60.70
27671;DHT22;15077;49.704;9.908;2023-09-07T06:34:59;19.20;60.90
27671;DHT22;15077;49.704;9.908;2023-09-07T06:37:25;19.20;60.90
27671;DHT22;15077;49.704;9.908;2023-09-07T06:39:51;19.30;62.00
27671;DHT22;15077;49.704;9.908;2023-09-07T06:42:17;19.40;62.00
27671;DHT22;15077;49.704;9.908;2023-09-07T06:44:42;19.40;62.00
27671;DHT22;15077;49.704;9.908;2023-09-07T06:47:09;19.40;62.10
27671;DHT22;15077;49.704;9.908;2023-09-07T06:49:34;19.50;63.10
27671;DHT22;15077;49.704;9.908;2023-09-07T06:52:00;19.50;63.30
27671;DHT22;15077;49.704;9.908;2023-09-07T06:54:30;19.60;63.10
27671;DHT22;15077;49.704;9.908;2023-09-07T06:56:56;19.60;63.60
27671;DHT22;15077;49.704;9.908;2023-09-07T06:59:25;19.70;63.70
27671;DHT22;15077;49.704;9.908;2023-09-07T07:01:50;19.70;63.60
27671;DHT22;15077;49.704;9.908;2023-09-07T07:04:16;19.80;64.00
27671;DHT22;15077;49.704;9.908;2023-09-07T07:06:42;19.80;63.60
27671;DHT22;15077;49.704;9.908;2023-09-07T07:09:07;19.90;63.80
27671;DHT22;15077;49.704;9.908;2023-09-07T07:11:34;20.00;63.60
27671;DHT22;15077;49.704;9.908;2023-09-07T07:14:00;20.00;63.60
27671;DHT22;15077;49.704;9.908;2023-09-07T07:16:26;20.10;63.80
27671;DHT22;15077;49.704;9.908;2023-09-07T07:18:51;20.20;63.90
27671;DHT22;15077;49.704;9.908;2023-09-07T07:21:17;20.20;63.90
27671;DHT22;15077;49.704;9.908;2023-09-07T07:23:43;20.30;64.10
27671;DHT22;15077;49.704;9.908;2023-09-07T07:26:09;20.40;64.00
27671;DHT22;15077;49.704;9.908;2023-09-07T07:28:35;20.40;64.20
27671;DHT22;15077;49.704;9.908;2023-09-07T07:31:07;20.50;63.90
27671;DHT22;15077;49.704;9.908;2023-09-07T07:33:34;20.60;64.00
27671;DHT22;15077;49.704;9.908;2023-09-07T07:36:00;20.60;64.00
27671;DHT22;15077;49.704;9.908;2023-09-07T07:38:26;20.70;63.70
27671;DHT22;15077;49.704;9.908;2023-09-07T07:40:52;20.80;63.50
27671;DHT22;15077;49.704;9.908;2023-09-07T07:43:18;20.80;63.30
27671;DHT22;15077;49.704;9.908;2023-09-07T07:45:44;20.90;63.50
27671;DHT22;15077;49.704;9.908;2023-09-07T07:48:10;21.00;63.80
27671;DHT22;15077;49.704;9.908;2023-09-07T07:50:38;21.10;64.00
27671;DHT22;15077;49.704;9.908;2023-09-07T07:53:05;21.20;63.80
27671;DHT22;15077;49.704;9.908;2023-09-07T07:55:35;21.20;63.80
27671;DHT22;15077;49.704;9.908;2023-09-07T07:58:05;21.30;63.60
27671;DHT22;15077;49.704;9.908;2023-09-07T08:00:37;21.40;63.70
27671;DHT22;15077;49.704;9.908;2023-09-07T08:03:04;21.50;63.90
27671;DHT22;15077;49.704;9.908;2023-09-07T08:05:33;21.60;63.90
27671;DHT22;15077;49.704;9.908;2023-09-07T08:08:00;21.70;63.70
27671;DHT22;15077;49.704;9.908;2023-09-07T08:10:26;21.80;63.60
27671;DHT22;15077;49.704;9.908;2023-09-07T08:12:56;21.90;63.50
27671;DHT22;15077;49.704;9.908;2023-09-07T08:15:22;22.00;63.40
27671;DHT22;15077;49.704;9.908;2023-09-07T08:17:50;22.20;63.50
27671;DHT22;15077;49.704;9.908;2023-09-07T08:20:16;22.30;62.60
27671;DHT22;15077;49.704;9.908;2023-09-07T08:22:43;22.40;62.30
27671;DHT22;15077;49.704;9.908;2023-09-07T08:25:09;22.50;62.30
27671;DHT22;15077;49.704;9.908;2023-09-07T08:27:36;22.60;62.00
27671;DHT22;15077;49.704;9.908;2023-09-07T08:30:02;22.70;61.90
27671;DHT22;15077;49.704;9.908;2023-09-07T08:32:31;22.70;61.70
27671;DHT22;15077;49.704;9.908;2023-09-07T08:34:57;22.80;61.80
27671;DHT22;15077;49.704;9.908;2023-09-07T08:37:26;22.90;61.70
27671;DHT22;15077;49.704;9.908;2023-09-07T08:39:54;23.00;61.50
27671;DHT22;15077;49.704;9.908;2023-09-07T08:42:21;23.10;61.50
27671;DHT22;15077;49.704;9.908;2023-09-07T08:44:49;23.20;61.30
27671;DHT22;15077;49.704;9.908;2023-09-07T08:47:18;23.30;60.90
27671;DHT22;15077;49.704;9.908;2023-09-07T08:49:45;23.40;60.90
27671;DHT22;15077;49.704;9.908;2023-09-07T08:52:14;23.40;60.80
27671;DHT22;15077;49.704;9.908;2023-09-07T08:54:42;23.50;61.00
27671;DHT22;15077;49.704;9.908;2023-09-07T08:57:10;23.60;60.70
27671;DHT22;15077;49.704;9.908;2023-09-07T08:59:36;23.70;60.70
27671;DHT22;15077;49.704;9.908;2023-09-07T09:02:02;23.80;60.80
27671;DHT22;15077;49.704;9.908;2023-09-07T09:04:30;23.90;60.10
27671;DHT22;15077;49.704;9.908;2023-09-07T09:06:56;24.10;60.00
27671;DHT22;15077;49.704;9.908;2023-09-07T09:09:24;24.10;59.60
27671;DHT22;15077;49.704;9.908;2023-09-07T09:11:51;24.30;59.40
27671;DHT22;15077;49.704;9.908;2023-09-07T09:14:20;24.40;58.90
27671;DHT22;15077;49.704;9.908;2023-09-07T09:16:54;24.50;58.80
27671;DHT22;15077;49.704;9.908;2023-09-07T09:19:30;24.60;58.80
27671;DHT22;15077;49.704;9.908;2023-09-07T09:22:00;24.70;58.90
27671;DHT22;15077;49.704;9.908;2023-09-07T09:24:26;24.90;58.70
27671;DHT22;15077;49.704;9.908;2023-09-07T09:26:52;25.00;58.30
27671;DHT22;15077;49.704;9.908;2023-09-07T09:29:22;25.10;58.00
27671;DHT22;15077;49.704;9.908;2023-09-07T09:31:48;25.20;58.00
27671;DHT22;15077;49.704;9.908;2023-09-07T09:34:17;25.30;57.80
27671;DHT22;15077;49.704;9.908;2023-09-07T09:36:43;25.50;57.60
27671;DHT22;15077;49.704;9.908;2023-09-07T09:39:09;25.60;57.80
27671;DHT22;15077;49.704;9.908;2023-09-07T09:41:35;25.70;57.30
27671;DHT22;15077;49.704;9.908;2023-09-07T09:44:06;25.80;56.90
27671;DHT22;15077;49.704;9.908;2023-09-07T09:46:34;26.00;57.10
27671;DHT22;15077;49.704;9.908;2023-09-07T09:49:01;26.10;56.70
27671;DHT22;15077;49.704;9.908;2023-09-07T09:51:29;26.20;55.50
27671;DHT22;15077;49.704;9.908;2023-09-07T09:53:57;26.40;55.50
27671;DHT22;15077;49.704;9.908;2023-09-07T09:56:23;26.50;55.90
27671;DHT22;15077;49.704;9.908;2023-09-07T09:58:51;26.60;55.30
27671;DHT22;15077;49.704;9.908;2023-09-07T10:01:18;26.70;54.30
27671;DHT22;15077;49.704;9.908;2023-09-07T10:03:47;26.90;53.60
27671;DHT22;15077;49.704;9.908;2023-09-07T10:06:33;27.00;54.10
27671;DHT22;15077;49.704;9.908;2023-09-07T10:09:03;27.10;54.30
27671;DHT22;15077;49.704;9.908;2023-09-07T10:11:38;27.20;53.50
27671;DHT22;15077;49.704;9.908;2023-09-07T10:14:05;27.40;52.80
27671;DHT22;15077;49.704;9.908;2023-09-07T10:19:16;27.60;52.50
27671;DHT22;15077;49.704;9.908;2023-09-07T10:21:42;27.70;52.40
27671;DHT22;15077;49.704;9.908;2023-09-07T10:24:09;27.80;51.90
27671;DHT22;15077;49.704;9.908;2023-09-07T10:26:35;27.90;51.30
27671;DHT22;15077;49.704;9.908;2023-09-07T10:29:02;28.10;51.20
27671;DHT22;15077;49.704;9.908;2023-09-07T10:31:29;28.20;50.80
27671;DHT22;15077;49.704;9.908;2023-09-07T10:33:56;28.20;50.10
27671;DHT22;15077;49.704;9.908;2023-09-07T10:38:49;28.50;49.90
27671;DHT22;15077;49.704;9.908;2023-09-07T10:41:19;28.60;49.40
27671;DHT22;15077;49.704;9.908;2023-09-07T10:43:53;28.70;49.20
27671;DHT22;15077;49.704;9.908;2023-09-07T10:46:20;28.80;49.00
27671;DHT22;15077;49.704;9.908;2023-09-07T10:48:51;28.90;48.40
27671;DHT22;15077;49.704;9.908;2023-09-07T10:51:20;29.00;48.30
27671;DHT22;15077;49.704;9.908;2023-09-07T10:53:47;29.10;48.40
27671;DHT22;15077;49.704;9.908;2023-09-07T10:56:14;29.20;47.90
27671;DHT22;15077;49.704;9.908;2023-09-07T10:58:40;29.20;47.60
27671;DHT22;15077;49.704;9.908;2023-09-07T11:01:08;29.30;47.70
27671;DHT22;15077;49.704;9.908;2023-09-07T11:03:36;29.40;47.70
27671;DHT22;15077;49.704;9.908;2023-09-07T11:06:17;29.50;47.70
27671;DHT22;15077;49.704;9.908;2023-09-07T11:08:48;29.60;47.40
27671;DHT22;15077;49.704;9.908;2023-09-07T11:11:14;29.70;47.40
27671;DHT22;15077;49.704;9.908;2023-09-07T11:13:41;29.90;46.50
27671;DHT22;15077;49.704;9.908;2023-09-07T11:16:09;29.90;45.00
27671;DHT22;15077;49.704;9.908;2023-09-07T11:18:35;30.00;44.40
27671;DHT22;15077;49.704;9.908;2023-09-07T11:21:02;30.10;44.00
27671;DHT22;15077;49.704;9.908;2023-09-07T11:23:33;30.20;43.40
27671;DHT22;15077;49.704;9.908;2023-09-07T11:26:10;30.20;42.80
27671;DHT22;15077;49.704;9.908;2023-09-07T11:28:39;30.30;43.80
27671;DHT22;15077;49.704;9.908;2023-09-07T11:31:08;30.30;43.30
27671;DHT22;15077;49.704;9.908;2023-09-07T11:33:34;30.40;42.80
27671;DHT22;15077;49.704;9.908;2023-09-07T11:36:00;30.50;42.30
27671;DHT22;15077;49.704;9.908;2023-09-07T11:38:29;30.50;42.40
27671;DHT22;15077;49.704;9.908;2023-09-07T11:41:01;30.60;43.00
27671;DHT22;15077;49.704;9.908;2023-09-07T11:43:27;30.60;41.80
27671;DHT22;15077;49.704;9.908;2023-09-07T11:45:53;30.70;42.40
27671;DHT22;15077;49.704;9.908;2023-09-07T11:48:18;30.70;42.50
27671;DHT22;15077;49.704;9.908;2023-09-07T11:50:44;30.80;42.10
27671;DHT22;15077;49.704;9.908;2023-09-07T11:53:10;30.80;42.00
27671;DHT22;15077;49.704;9.908;2023-09-07T11:55:36;30.90;41.50
27671;DHT22;15077;49.704;9.908;2023-09-07T11:58:03;30.90;41.50
27671;DHT22;15077;49.704;9.908;2023-09-07T12:00:30;31.00;40.70
27671;DHT22;15077;49.704;9.908;2023-09-07T12:02:57;31.00;39.80
27671;DHT22;15077;49.704;9.908;2023-09-07T12:05:23;31.00;40.50
27671;DHT22;15077;49.704;9.908;2023-09-07T12:07:49;31.10;39.80
27671;DHT22;15077;49.704;9.908;2023-09-07T12:10:15;31.10;40.10
27671;DHT22;15077;49.704;9.908;2023-09-07T12:12:42;31.10;39.80
27671;DHT22;15077;49.704;9.908;2023-09-07T12:15:10;31.20;39.20
27671;DHT22;15077;49.704;9.908;2023-09-07T12:17:39;31.20;39.20
27671;DHT22;15077;49.704;9.908;2023-09-07T12:20:06;31.20;39.00
27671;DHT22;15077;49.704;9.908;2023-09-07T12:22:36;31.20;39.20
27671;DHT22;15077;49.704;9.908;2023-09-07T12:25:04;31.20;39.50
27671;DHT22;15077;49.704;9.908;2023-09-07T12:27:33;31.20;40.10
27671;DHT22;15077;49.704;9.908;2023-09-07T12:30:03;31.30;39.70
27671;DHT22;15077;49.704;9.908;2023-09-07T12:32:33;31.30;39.80
27671;DHT22;15077;49.704;9.908;2023-09-07T12:34:59;31.30;39.30
27671;DHT22;15077;49.704;9.908;2023-09-07T12:37:25;31.40;38.90
27671;DHT22;15077;49.704;9.908;2023-09-07T12:39:51;31.40;38.00
27671;DHT22;15077;49.704;9.908;2023-09-07T12:42:17;31.40;38.20
27671;DHT22;15077;49.704;9.908;2023-09-07T12:44:44;31.50;38.50
27671;DHT22;15077;49.704;9.908;2023-09-07T12:47:09;31.50;39.00
27671;DHT22;15077;49.704;9.908;2023-09-07T12:49:35;31.50;38.90
27671;DHT22;15077;49.704;9.908;2023-09-07T12:52:01;31.60;38.60
27671;DHT22;15077;49.704;9.908;2023-09-07T12:54:34;31.60;38.10
27671;DHT22;15077;49.704;9.908;2023-09-07T12:57:02;31.60;37.80
27671;DHT22;15077;49.704;9.908;2023-09-07T12:59:29;31.60;38.00
27671;DHT22;15077;49.704;9.908;2023-09-07T13:01:55;31.60;37.40
27671;DHT22;15077;49.704;9.908;2023-09-07T13:04:23;31.70;37.40
27671;DHT22;15077;49.704;9.908;2023-09-07T13:06:49;31.70;38.30
27671;DHT22;15077;49.704;9.908;2023-09-07T13:09:15;31.70;38.10
27671;DHT22;15077;49.704;9.908;2023-09-07T13:11:40;31.80;37.50
27671;DHT22;15077;49.704;9.908;2023-09-07T13:14:06;31.80;37.40
27671;DHT22;15077;49.704;9.908;2023-09-07T13:16:34;31.80;38.20
27671;DHT22;15077;49.704;9.908;2023-09-07T13:18:59;31.80;38.10
27671;DHT22;15077;49.704;9.908;2023-09-07T13:21:25;31.90;37.60
27671;DHT22;15077;49.704;9.908;2023-09-07T13:23:51;31.90;38.10
27671;DHT22;15077;49.704;9.908;2023-09-07T13:26:17;31.90;38.30
27671;DHT22;15077;49.704;9.908;2023-09-07T13:28:42;32.00;38.40
27671;DHT22;15077;49.704;9.908;2023-09-07T13:31:08;32.00;37.70
27671;DHT22;15077;49.704;9.908;2023-09-07T13:33:34;32.10;38.10
27671;DHT22;15077;49.704;9.908;2023-09-07T13:35:59;32.10;38.30
27671;DHT22;15077;49.704;9.908;2023-09-07T13:38:26;32.10;38.20
27671;DHT22;15077;49.704;9.908;2023-09-07T13:40:52;32.10;38.10
27671;DHT22;15077;49.704;9.908;2023-09-07T13:43:18;32.20;38.40
27671;DHT22;15077;49.704;9.908;2023-09-07T13:45:44;32.20;38.30
27671;DHT22;15077;49.704;9.908;2023-09-07T13:48:10;32.20;37.40
27671;DHT22;15077;49.704;9.908;2023-09-07T13:50:35;32.30;36.20
27671;DHT22;15077;49.704;9.908;2023-09-07T13:53:01;32.30;36.40
27671;DHT22;15077;49.704;9.908;2023-09-07T13:55:27;32.30;36.40
27671;DHT22;15077;49.704;9.908;2023-09-07T13:57:53;32.30;36.80
27671;DHT22;15077;49.704;9.908;2023-09-07T14:00:19;32.30;36.90
27671;DHT22;15077;49.704;9.908;2023-09-07T14:02:45;32.30;36.60
27671;DHT22;15077;49.704;9.908;2023-09-07T14:05:11;32.30;36.70
27671;DHT22;15077;49.704;9.908;2023-09-07T14:07:36;32.30;37.30
27671;DHT22;15077;49.704;9.908;2023-09-07T14:10:02;32.30;37.60
27671;DHT22;15077;49.704;9.908;2023-09-07T14:12:28;32.30;37.20
27671;DHT22;15077;49.704;9.908;2023-09-07T14:14:54;32.40;37.60
27671;DHT22;15077;49.704;9.908;2023-09-07T14:17:21;32.40;36.90
27671;DHT22;15077;49.704;9.908;2023-09-07T14:19:46;32.40;36.40
27671;DHT22;15077;49.704;9.908;2023-09-07T14:22:12;32.40;36.60
27671;DHT22;15077;49.704;9.908;2023-09-07T14:24:38;32.50;36.80
27671;DHT22;15077;49.704;9.908;2023-09-07T14:27:04;32.50;37.10
27671;DHT22;15077;49.704;9.908;2023-09-07T14:29:30;32.60;37.00
27671;DHT22;15077;49.704;9.908;2023-09-07T14:31:56;32.50;36.70
27671;DHT22;15077;49.704;9.908;2023-09-07T14:34:22;32.60;37.00
27671;DHT22;15077;49.704;9.908;2023-09-07T14:36:48;32.60;36.60
27671;DHT22;15077;49.704;9.908;2023-09-07T14:39:14;32.60;36.90
27671;DHT22;15077;49.704;9.908;2023-09-07T14:41:41;32.60;36.70
27671;DHT22;15077;49.704;9.908;2023-09-07T14:44:08;32.60;36.20
27671;DHT22;15077;49.704;9.908;2023-09-07T14:46:35;32.60;36.00
27671;DHT22;15077;49.704;9.908;2023-09-07T14:49:01;32.60;36.10
27671;DHT22;15077;49.704;9.908;2023-09-07T14:51:27;32.60;36.40
27671;DHT22;15077;49.704;9.908;2023-09-07T14:53:53;32.60;36.30
27671;DHT22;15077;49.704;9.908;2023-09-07T14:56:19;32.60;36.30
27671;DHT22;15077;49.704;9.908;2023-09-07T14:58:45;32.60;36.70
27671;DHT22;15077;49.704;9.908;2023-09-07T15:01:11;32.60;36.30
27671;DHT22;15077;49.704;9.908;2023-09-07T15:03:37;32.60;36.50
27671;DHT22;15077;49.704;9.908;2023-09-07T15:06:06;32.60;36.20
27671;DHT22;15077;49.704;9.908;2023-09-07T15:08:32;32.60;36.10
27671;DHT22;15077;49.704;9.908;2023-09-07T15:10:58;32.60;36.60
27671;DHT22;15077;49.704;9.908;2023-09-07T15:13:25;32.70;36.80
27671;DHT22;15077;49.704;9.908;2023-09-07T15:15:51;32.70;36.50
27671;DHT22;15077;49.704;9.908;2023-09-07T15:18:17;32.70;36.60
27671;DHT22;15077;49.704;9.908;2023-09-07T15:20:43;32.70;36.50
27671;DHT22;15077;49.704;9.908;2023-09-07T15:23:08;32.70;36.90
27671;DHT22;15077;49.704;9.908;2023-09-07T15:25:34;32.70;37.40
27671;DHT22;15077;49.704;9.908;2023-09-07T15:28:00;32.70;37.20
27671;DHT22;15077;49.704;9.908;2023-09-07T15:30:26;32.70;37.50
27671;DHT22;15077;49.704;9.908;2023-09-07T15:32:52;32.70;37.60